sensor_id;sensor_type;location;lat;lon;timestamp;P1;durP1;ratioP1;P2;durP2;ratioP2
1811;SDS011;904;47.814;11.134;2023-08-20T00:01:46;9.47;;;5.33;;
1811;SDS011;904;47.814;11.134;2023-08-20T00:04:18;8.77;;;4.70;;
1811;SDS011;904;47.814;11.134;2023-08-20T00:06:50;8.27;;;4.70;;
1811;SDS011;904;47.814;11.134;2023-08-20T00:09:20;10.53;;;6.23;;
1811;SDS011;904;47.814;11.134;2023-08-20T00:11:53;9.20;;;4.73;;
1811;SDS011;904;47.814;11.134;2023-08-20T00:14:51;8.30;;;5.70;;
1811;SDS011;904;47.814;11.134;2023-08-20T00:17:21;5.50;;;4.90;;
1811;SDS011;904;47.814;11.134;2023-08-20T00:19:54;9.10;;;5.10;;
1811;SDS011;904;47.814;11.134;2023-08-20T00:22:31;9.30;;;4.77;;
1811;SDS011;904;47.814;11.134;2023-08-20T00:24:59;9.63;;;5.00;;
1811;SDS011;904;47.814;11.134;2023-08-20T00:27:36;12.97;;;5.50;;
1811;SDS011;904;47.814;11.134;2023-08-20T00:30:03;10.60;;;5.60;;
1811;SDS011;904;47.814;11.134;2023-08-20T00:32:31;8.27;;;5.67;;
1811;SDS011;904;47.814;11.134;2023-08-20T00:35:00;7.57;;;5.50;;
1811;SDS011;904;47.814;11.134;2023-08-20T00:37:28;9.87;;;4.90;;
1811;SDS011;904;47.814;11.134;2023-08-20T00:39:55;6.23;;;5.23;;
1811;SDS011;904;47.814;11.134;2023-08-20T00:42:24;9.80;;;4.70;;
1811;SDS011;904;47.814;11.134;2023-08-20T00:44:57;9.40;;;4.33;;
1811;SDS011;904;47.814;11.134;2023-08-20T00:47:24;6.67;;;4.43;;
1811;SDS011;904;47.814;11.134;2023-08-20T00:49:53;6.13;;;4.53;;
1811;SDS011;904;47.814;11.134;2023-08-20T00:52:25;8.93;;;6.30;;
1811;SDS011;904;47.814;11.134;2023-08-20T00:54:52;5.77;;;4.77;;
1811;SDS011;904;47.814;11.134;2023-08-20T00:57:20;6.80;;;4.93;;
1811;SDS011;904;47.814;11.134;2023-08-20T00:59:48;9.77;;;4.77;;
1811;SDS011;904;47.814;11.134;2023-08-20T01:02:17;8.90;;;5.53;;
1811;SDS011;904;47.814;11.134;2023-08-20T01:04:45;9.13;;;5.50;;
1811;SDS011;904;47.814;11.134;2023-08-20T01:07:18;8.70;;;5.33;;
1811;SDS011;904;47.814;11.134;2023-08-20T01:09:57;8.50;;;5.90;;
1811;SDS011;904;47.814;11.134;2023-08-20T01:12:39;10.20;;;5.70;;
1811;SDS011;904;47.814;11.134;2023-08-20T01:15:08;8.50;;;4.80;;
1811;SDS011;904;47.814;11.134;2023-08-20T01:17:40;8.17;;;5.93;;
1811;SDS011;904;47.814;11.134;2023-08-20T01:20:08;9.13;;;5.47;;
1811;SDS011;904;47.814;11.134;2023-08-20T01:22:45;10.33;;;5.37;;
1811;SDS011;904;47.814;11.134;2023-08-20T01:25:29;8.23;;;4.87;;
1811;SDS011;904;47.814;11.134;2023-08-20T01:28:16;9.73;;;5.47;;
1811;SDS011;904;47.814;11.134;2023-08-20T01:30:45;13.50;;;5.20;;
1811;SDS011;904;47.814;11.134;2023-08-20T01:33:14;10.80;;;5.37;;
1811;SDS011;904;47.814;11.134;2023-08-20T01:35:42;7.97;;;5.30;;
1811;SDS011;904;47.814;11.134;2023-08-20T01:38:09;8.10;;;5.23;;
1811;SDS011;904;47.814;11.134;2023-08-20T01:40:36;6.60;;;4.63;;
1811;SDS011;904;47.814;11.134;2023-08-20T01:43:03;6.90;;;4.97;;
1811;SDS011;904;47.814;11.134;2023-08-20T01:45:32;8.63;;;5.77;;
1811;SDS011;904;47.814;11.134;2023-08-20T01:47:59;7.47;;;5.27;;
1811;SDS011;904;47.814;11.134;2023-08-20T01:50:30;8.47;;;5.33;;
1811;SDS011;904;47.814;11.134;2023-08-20T01:52:58;14.53;;;7.20;;
1811;SDS011;904;47.814;11.134;2023-08-20T01:55:29;8.97;;;5.07;;
1811;SDS011;904;47.814;11.134;2023-08-20T01:57:56;10.93;;;5.60;;
1811;SDS011;904;47.814;11.134;2023-08-20T02:00:23;7.10;;;4.97;;
1811;SDS011;904;47.814;11.134;2023-08-20T02:02:53;9.07;;;5.87;;
1811;SDS011;904;47.814;11.134;2023-08-20T02:05:23;7.33;;;5.27;;
1811;SDS011;904;47.814;11.134;2023-08-20T02:07:50;9.23;;;5.60;;
1811;SDS011;904;47.814;11.134;2023-08-20T02:10:22;8.77;;;5.30;;
1811;SDS011;904;47.814;11.134;2023-08-20T02:12:58;8.53;;;4.97;;
1811;SDS011;904;47.814;11.134;2023-08-20T02:15:25;19.23;;;6.93;;
1811;SDS011;904;47.814;11.134;2023-08-20T02:17:58;8.80;;;6.27;;
1811;SDS011;904;47.814;11.134;2023-08-20T02:20:34;9.47;;;5.30;;
1811;SDS011;904;47.814;11.134;2023-08-20T02:23:01;7.70;;;5.03;;
1811;SDS011;904;47.814;11.134;2023-08-20T02:25:31;7.83;;;5.63;;
1811;SDS011;904;47.814;11.134;2023-08-20T02:28:00;15.60;;;5.90;;
1811;SDS011;904;47.814;11.134;2023-08-20T02:30:30;10.63;;;5.27;;
1811;SDS011;904;47.814;11.134;2023-08-20T02:33:05;13.20;;;6.10;;
1811;SDS011;904;47.814;11.134;2023-08-20T02:35:33;7.73;;;5.10;;
1811;SDS011;904;47.814;11.134;2023-08-20T02:38:04;11.83;;;5.53;;
1811;SDS011;904;47.814;11.134;2023-08-20T02:40:31;8.60;;;5.10;;
1811;SDS011;904;47.814;11.134;2023-08-20T02:42:58;9.13;;;6.20;;
1811;SDS011;904;47.814;11.134;2023-08-20T02:45:27;7.40;;;4.63;;
1811;SDS011;904;47.814;11.134;2023-08-20T02:48:01;9.00;;;5.13;;
1811;SDS011;904;47.814;11.134;2023-08-20T02:50:36;5.93;;;4.30;;
1811;SDS011;904;47.814;11.134;2023-08-20T02:53:09;9.47;;;5.43;;
1811;SDS011;904;47.814;11.134;2023-08-20T02:55:38;6.93;;;4.47;;
1811;SDS011;904;47.814;11.134;2023-08-20T02:58:05;9.63;;;5.80;;
1811;SDS011;904;47.814;11.134;2023-08-20T03:00:36;9.60;;;5.17;;
1811;SDS011;904;47.814;11.134;2023-08-20T03:03:03;8.80;;;4.60;;
1811;SDS011;904;47.814;11.134;2023-08-20T03:05:38;9.53;;;5.30;;
1811;SDS011;904;47.814;11.134;2023-08-20T03:08:07;9.70;;;5.10;;
1811;SDS011;904;47.814;11.134;2023-08-20T03:10:37;9.07;;;4.73;;
1811;SDS011;904;47.814;11.134;2023-08-20T03:13:04;11.53;;;5.60;;
1811;SDS011;904;47.814;11.134;2023-08-20T03:15:36;8.50;;;4.57;;
1811;SDS011;904;47.814;11.134;2023-08-20T03:18:04;6.40;;;4.47;;
1811;SDS011;904;47.814;11.134;2023-08-20T03:20:31;10.60;;;5.63;;
1811;SDS011;904;47.814;11.134;2023-08-20T03:23:01;8.43;;;5.07;;
1811;SDS011;904;47.814;11.134;2023-08-20T03:25:28;6.50;;;5.10;;
1811;SDS011;904;47.814;11.134;2023-08-20T03:27:58;10.30;;;6.00;;
1811;SDS011;904;47.814;11.134;2023-08-20T03:30:34;8.17;;;5.63;;
1811;SDS011;904;47.814;11.134;2023-08-20T03:33:05;7.97;;;5.30;;
1811;SDS011;904;47.814;11.134;2023-08-20T03:35:32;6.77;;;4.93;;
1811;SDS011;904;47.814;11.134;2023-08-20T03:38:06;10.90;;;6.00;;
1811;SDS011;904;47.814;11.134;2023-08-20T03:40:35;9.70;;;5.60;;
1811;SDS011;904;47.814;11.134;2023-08-20T03:43:04;8.10;;;6.00;;
1811;SDS011;904;47.814;11.134;2023-08-20T03:45:31;9.23;;;5.93;;
1811;SDS011;904;47.814;11.134;2023-08-20T03:48:03;7.27;;;4.87;;
1811;SDS011;904;47.814;11.134;2023-08-20T03:50:30;9.37;;;5.67;;
1811;SDS011;904;47.814;11.134;2023-08-20T03:52:57;8.40;;;5.27;;
1811;SDS011;904;47.814;11.134;2023-08-20T03:55:28;8.60;;;5.30;;
1811;SDS011;904;47.814;11.134;2023-08-20T03:57:55;9.53;;;5.20;;
1811;SDS011;904;47.814;11.134;2023-08-20T04:00:24;11.77;;;5.77;;
1811;SDS011;904;47.814;11.134;2023-08-20T04:02:54;8.97;;;5.60;;
1811;SDS011;904;47.814;11.134;2023-08-20T04:05:21;10.40;;;6.27;;
1811;SDS011;904;47.814;11.134;2023-08-20T04:07:50;7.60;;;5.40;;
1811;SDS011;904;47.814;11.134;2023-08-20T04:10:17;8.57;;;4.77;;
1811;SDS011;904;47.814;11.134;2023-08-20T04:12:50;9.70;;;5.50;;
1811;SDS011;904;47.814;11.134;2023-08-20T04:15:17;15.00;;;5.33;;
1811;SDS011;904;47.814;11.134;2023-08-20T04:17:44;9.10;;;5.17;;
1811;SDS011;904;47.814;11.134;2023-08-20T04:20:14;7.70;;;4.70;;
1811;SDS011;904;47.814;11.134;2023-08-20T04:22:42;7.13;;;5.70;;
1811;SDS011;904;47.814;11.134;2023-08-20T04:25:09;7.33;;;5.23;;
1811;SDS011;904;47.814;11.134;2023-08-20T04:27:40;12.93;;;5.83;;
1811;SDS011;904;47.814;11.134;2023-08-20T04:30:09;8.17;;;4.77;;
1811;SDS011;904;47.814;11.134;2023-08-20T04:32:38;6.20;;;5.07;;
1811;SDS011;904;47.814;11.134;2023-08-20T04:35:07;10.63;;;5.00;;
1811;SDS011;904;47.814;11.134;2023-08-20T04:37:35;8.63;;;5.50;;
1811;SDS011;904;47.814;11.134;2023-08-20T04:40:10;8.23;;;5.07;;
1811;SDS011;904;47.814;11.134;2023-08-20T04:42:37;10.83;;;5.20;;
1811;SDS011;904;47.814;11.134;2023-08-20T04:45:09;6.80;;;4.87;;
1811;SDS011;904;47.814;11.134;2023-08-20T04:47:36;6.80;;;5.17;;
1811;SDS011;904;47.814;11.134;2023-08-20T04:50:08;10.07;;;5.30;;
1811;SDS011;904;47.814;11.134;2023-08-20T04:52:44;11.33;;;6.93;;
1811;SDS011;904;47.814;11.134;2023-08-20T04:55:16;9.67;;;5.87;;
1811;SDS011;904;47.814;11.134;2023-08-20T04:57:43;12.90;;;5.07;;
1811;SDS011;904;47.814;11.134;2023-08-20T05:00:12;7.07;;;4.80;;
1811;SDS011;904;47.814;11.134;2023-08-20T05:02:41;7.80;;;4.80;;
1811;SDS011;904;47.814;11.134;2023-08-20T05:05:10;9.57;;;5.10;;
1811;SDS011;904;47.814;11.134;2023-08-20T05:07:43;7.37;;;4.63;;
1811;SDS011;904;47.814;11.134;2023-08-20T05:10:19;9.07;;;5.30;;
1811;SDS011;904;47.814;11.134;2023-08-20T05:12:50;7.70;;;5.70;;
1811;SDS011;904;47.814;11.134;2023-08-20T05:15:19;7.60;;;5.20;;
1811;SDS011;904;47.814;11.134;2023-08-20T05:17:46;10.40;;;6.20;;
1811;SDS011;904;47.814;11.134;2023-08-20T05:20:23;9.93;;;6.37;;
1811;SDS011;904;47.814;11.134;2023-08-20T05:22:50;10.07;;;6.20;;
1811;SDS011;904;47.814;11.134;2023-08-20T05:25:24;9.83;;;6.30;;
1811;SDS011;904;47.814;11.134;2023-08-20T05:27:54;11.43;;;7.13;;
1811;SDS011;904;47.814;11.134;2023-08-20T05:30:22;7.50;;;5.73;;
1811;SDS011;904;47.814;11.134;2023-08-20T05:32:49;9.20;;;5.80;;
1811;SDS011;904;47.814;11.134;2023-08-20T05:35:21;6.43;;;5.80;;
1811;SDS011;904;47.814;11.134;2023-08-20T05:37:48;11.43;;;6.67;;
1811;SDS011;904;47.814;11.134;2023-08-20T05:40:18;10.13;;;6.20;;
1811;SDS011;904;47.814;11.134;2023-08-20T05:42:51;6.57;;;5.37;;
1811;SDS011;904;47.814;11.134;2023-08-20T05:45:18;10.00;;;6.30;;
1811;SDS011;904;47.814;11.134;2023-08-20T05:47:50;9.10;;;7.00;;
1811;SDS011;904;47.814;11.134;2023-08-20T05:50:17;9.00;;;5.60;;
1811;SDS011;904;47.814;11.134;2023-08-20T05:52:46;8.07;;;5.63;;
1811;SDS011;904;47.814;11.134;2023-08-20T05:55:15;8.27;;;5.63;;
1811;SDS011;904;47.814;11.134;2023-08-20T05:57:44;6.87;;;4.57;;
1811;SDS011;904;47.814;11.134;2023-08-20T06:00:11;8.80;;;4.83;;
1811;SDS011;904;47.814;11.134;2023-08-20T06:02:39;9.33;;;5.53;;
1811;SDS011;904;47.814;11.134;2023-08-20T06:05:08;6.30;;;5.27;;
1811;SDS011;904;47.814;11.134;2023-08-20T06:07:35;11.23;;;4.77;;
1811;SDS011;904;47.814;11.134;2023-08-20T06:10:03;6.73;;;5.20;;
1811;SDS011;904;47.814;11.134;2023-08-20T06:12:30;9.80;;;5.60;;
1811;SDS011;904;47.814;11.134;2023-08-20T06:14:57;6.60;;;5.60;;
1811;SDS011;904;47.814;11.134;2023-08-20T06:17:24;5.80;;;5.10;;
1811;SDS011;904;47.814;11.134;2023-08-20T06:19:51;5.93;;;4.73;;
1811;SDS011;904;47.814;11.134;2023-08-20T06:22:19;10.23;;;5.50;;
1811;SDS011;904;47.814;11.134;2023-08-20T06:24:46;12.17;;;5.37;;
1811;SDS011;904;47.814;11.134;2023-08-20T06:27:13;7.53;;;4.73;;
1811;SDS011;904;47.814;11.134;2023-08-20T06:29:42;8.13;;;5.03;;
1811;SDS011;904;47.814;11.134;2023-08-20T06:32:14;7.47;;;5.67;;
1811;SDS011;904;47.814;11.134;2023-08-20T06:34:41;7.20;;;5.00;;
1811;SDS011;904;47.814;11.134;2023-08-20T06:37:08;11.10;;;4.80;;
1811;SDS011;904;47.814;11.134;2023-08-20T06:39:37;10.07;;;5.53;;
1811;SDS011;904;47.814;11.134;2023-08-20T06:42:04;10.30;;;5.80;;
1811;SDS011;904;47.814;11.134;2023-08-20T06:44:31;10.17;;;5.50;;
1811;SDS011;904;47.814;11.134;2023-08-20T06:46:58;6.83;;;4.50;;
1811;SDS011;904;47.814;11.134;2023-08-20T06:49:24;6.07;;;4.87;;
1811;SDS011;904;47.814;11.134;2023-08-20T06:51:51;5.50;;;4.77;;
1811;SDS011;904;47.814;11.134;2023-08-20T06:54:18;6.10;;;4.90;;
1811;SDS011;904;47.814;11.134;2023-08-20T06:56:46;7.00;;;4.90;;
1811;SDS011;904;47.814;11.134;2023-08-20T06:59:13;7.73;;;5.00;;
1811;SDS011;904;47.814;11.134;2023-08-20T07:01:41;8.57;;;5.17;;
1811;SDS011;904;47.814;11.134;2023-08-20T07:04:08;7.80;;;6.07;;
1811;SDS011;904;47.814;11.134;2023-08-20T07:06:35;7.33;;;4.73;;
1811;SDS011;904;47.814;11.134;2023-08-20T07:09:02;16.30;;;6.30;;
1811;SDS011;904;47.814;11.134;2023-08-20T07:11:30;9.27;;;5.47;;
1811;SDS011;904;47.814;11.134;2023-08-20T07:13:58;6.53;;;4.53;;
1811;SDS011;904;47.814;11.134;2023-08-20T07:16:25;7.83;;;5.40;;
1811;SDS011;904;47.814;11.134;2023-08-20T07:18:52;7.40;;;5.23;;
1811;SDS011;904;47.814;11.134;2023-08-20T07:21:19;9.37;;;5.40;;
1811;SDS011;904;47.814;11.134;2023-08-20T07:23:46;7.93;;;5.50;;
1811;SDS011;904;47.814;11.134;2023-08-20T07:26:12;7.30;;;5.10;;
1811;SDS011;904;47.814;11.134;2023-08-20T07:28:40;11.40;;;4.70;;
1811;SDS011;904;47.814;11.134;2023-08-20T07:31:24;8.33;;;4.73;;
1811;SDS011;904;47.814;11.134;2023-08-20T07:33:51;11.87;;;5.37;;
1811;SDS011;904;47.814;11.134;2023-08-20T07:36:20;10.47;;;5.57;;
1811;SDS011;904;47.814;11.134;2023-08-20T07:38:48;9.83;;;5.73;;
1811;SDS011;904;47.814;11.134;2023-08-20T07:41:16;6.50;;;5.27;;
1811;SDS011;904;47.814;11.134;2023-08-20T07:43:44;9.30;;;5.07;;
1811;SDS011;904;47.814;11.134;2023-08-20T07:46:12;7.47;;;5.57;;
1811;SDS011;904;47.814;11.134;2023-08-20T07:48:41;7.60;;;5.20;;
1811;SDS011;904;47.814;11.134;2023-08-20T07:51:08;7.23;;;4.80;;
1811;SDS011;904;47.814;11.134;2023-08-20T07:53:35;7.03;;;4.80;;
1811;SDS011;904;47.814;11.134;2023-08-20T07:56:02;10.27;;;4.90;;
1811;SDS011;904;47.814;11.134;2023-08-20T07:58:29;11.50;;;4.80;;
1811;SDS011;904;47.814;11.134;2023-08-20T08:00:57;9.73;;;5.90;;
1811;SDS011;904;47.814;11.134;2023-08-20T08:03:24;6.13;;;4.93;;
1811;SDS011;904;47.814;11.134;2023-08-20T08:05:57;13.73;;;5.93;;
1811;SDS011;904;47.814;11.134;2023-08-20T08:08:24;6.70;;;4.47;;
1811;SDS011;904;47.814;11.134;2023-08-20T08:10:51;9.10;;;4.67;;
1811;SDS011;904;47.814;11.134;2023-08-20T08:13:19;9.00;;;5.00;;
1811;SDS011;904;47.814;11.134;2023-08-20T08:15:48;7.20;;;4.90;;
1811;SDS011;904;47.814;11.134;2023-08-20T08:18:16;13.00;;;4.83;;
1811;SDS011;904;47.814;11.134;2023-08-20T08:20:43;8.43;;;4.80;;
1811;SDS011;904;47.814;11.134;2023-08-20T08:23:24;7.47;;;4.63;;
1811;SDS011;904;47.814;11.134;2023-08-20T08:25:51;6.10;;;5.50;;
1811;SDS011;904;47.814;11.134;2023-08-20T08:28:21;8.93;;;5.60;;
1811;SDS011;904;47.814;11.134;2023-08-20T08:30:48;7.10;;;5.10;;
1811;SDS011;904;47.814;11.134;2023-08-20T08:33:15;9.27;;;4.50;;
1811;SDS011;904;47.814;11.134;2023-08-20T08:35:42;8.70;;;5.03;;
1811;SDS011;904;47.814;11.134;2023-08-20T08:38:09;5.90;;;5.10;;
1811;SDS011;904;47.814;11.134;2023-08-20T08:40:38;6.67;;;5.00;;
1811;SDS011;904;47.814;11.134;2023-08-20T08:43:07;10.77;;;4.90;;
1811;SDS011;904;47.814;11.134;2023-08-20T08:45:41;6.17;;;5.10;;
1811;SDS011;904;47.814;11.134;2023-08-20T08:48:11;7.67;;;5.03;;
1811;SDS011;904;47.814;11.134;2023-08-20T08:50:39;5.27;;;4.50;;
1811;SDS011;904;47.814;11.134;2023-08-20T08:53:06;8.63;;;5.53;;
1811;SDS011;904;47.814;11.134;2023-08-20T08:55:34;10.10;;;5.73;;
1811;SDS011;904;47.814;11.134;2023-08-20T08:58:03;8.43;;;5.60;;
1811;SDS011;904;47.814;11.134;2023-08-20T09:00:31;10.33;;;5.40;;
1811;SDS011;904;47.814;11.134;2023-08-20T09:02:58;7.27;;;5.77;;
1811;SDS011;904;47.814;11.134;2023-08-20T09:05:25;8.33;;;5.07;;
1811;SDS011;904;47.814;11.134;2023-08-20T09:07:56;9.73;;;4.90;;
1811;SDS011;904;47.814;11.134;2023-08-20T09:10:25;6.50;;;5.43;;
1811;SDS011;904;47.814;11.134;2023-08-20T09:12:54;10.70;;;5.47;;
1811;SDS011;904;47.814;11.134;2023-08-20T09:15:24;5.57;;;4.10;;
1811;SDS011;904;47.814;11.134;2023-08-20T09:18:00;6.67;;;4.53;;
1811;SDS011;904;47.814;11.134;2023-08-20T09:20:35;7.93;;;5.00;;
1811;SDS011;904;47.814;11.134;2023-08-20T09:23:03;8.20;;;5.30;;
1811;SDS011;904;47.814;11.134;2023-08-20T09:25:30;8.67;;;4.80;;
1811;SDS011;904;47.814;11.134;2023-08-20T09:27:57;10.43;;;4.60;;
1811;SDS011;904;47.814;11.134;2023-08-20T09:30:29;12.50;;;5.43;;
1811;SDS011;904;47.814;11.134;2023-08-20T09:33:03;9.00;;;4.80;;
1811;SDS011;904;47.814;11.134;2023-08-20T09:35:31;11.93;;;5.00;;
1811;SDS011;904;47.814;11.134;2023-08-20T09:37:58;10.90;;;4.90;;
1811;SDS011;904;47.814;11.134;2023-08-20T09:40:26;8.23;;;4.30;;
1811;SDS011;904;47.814;11.134;2023-08-20T09:42:54;9.50;;;4.47;;
1811;SDS011;904;47.814;11.134;2023-08-20T09:45:21;6.53;;;4.13;;
1811;SDS011;904;47.814;11.134;2023-08-20T09:47:54;7.87;;;4.77;;
1811;SDS011;904;47.814;11.134;2023-08-20T09:50:22;6.87;;;4.40;;
1811;SDS011;904;47.814;11.134;2023-08-20T09:52:54;6.33;;;3.87;;
1811;SDS011;904;47.814;11.134;2023-08-20T09:55:27;7.53;;;4.67;;
1811;SDS011;904;47.814;11.134;2023-08-20T09:57:59;8.20;;;4.57;;
1811;SDS011;904;47.814;11.134;2023-08-20T10:00:27;7.87;;;4.57;;
1811;SDS011;904;47.814;11.134;2023-08-20T10:02:56;8.70;;;5.20;;
1811;SDS011;904;47.814;11.134;2023-08-20T10:05:26;8.83;;;4.57;;
1811;SDS011;904;47.814;11.134;2023-08-20T10:07:58;8.63;;;4.67;;
1811;SDS011;904;47.814;11.134;2023-08-20T10:10:27;8.00;;;4.00;;
1811;SDS011;904;47.814;11.134;2023-08-20T10:12:55;9.40;;;4.17;;
1811;SDS011;904;47.814;11.134;2023-08-20T10:15:22;6.87;;;4.37;;
1811;SDS011;904;47.814;11.134;2023-08-20T10:17:51;5.77;;;4.87;;
1811;SDS011;904;47.814;11.134;2023-08-20T10:20:20;6.60;;;4.60;;
1811;SDS011;904;47.814;11.134;2023-08-20T10:22:47;7.63;;;4.13;;
1811;SDS011;904;47.814;11.134;2023-08-20T10:25:21;7.13;;;4.10;;
1811;SDS011;904;47.814;11.134;2023-08-20T10:27:49;5.83;;;3.60;;
1811;SDS011;904;47.814;11.134;2023-08-20T10:30:20;4.60;;;3.70;;
1811;SDS011;904;47.814;11.134;2023-08-20T10:32:51;7.30;;;3.40;;
1811;SDS011;904;47.814;11.134;2023-08-20T10:35:25;8.83;;;3.43;;
1811;SDS011;904;47.814;11.134;2023-08-20T10:38:06;9.23;;;3.10;;
1811;SDS011;904;47.814;11.134;2023-08-20T10:43:29;8.43;;;4.03;;
1811;SDS011;904;47.814;11.134;2023-08-20T10:46:08;13.07;;;3.97;;
1811;SDS011;904;47.814;11.134;2023-08-20T10:48:40;9.63;;;4.30;;
1811;SDS011;904;47.814;11.134;2023-08-20T10:51:13;7.37;;;3.87;;
1811;SDS011;904;47.814;11.134;2023-08-20T10:53:42;7.57;;;4.10;;
1811;SDS011;904;47.814;11.134;2023-08-20T10:56:39;4.67;;;3.40;;
1811;SDS011;904;47.814;11.134;2023-08-20T10:59:07;8.43;;;4.13;;
1811;SDS011;904;47.814;11.134;2023-08-20T11:01:40;6.37;;;3.63;;
1811;SDS011;904;47.814;11.134;2023-08-20T11:04:18;5.33;;;3.70;;
1811;SDS011;904;47.814;11.134;2023-08-20T11:06:49;5.20;;;3.60;;
1811;SDS011;904;47.814;11.134;2023-08-20T11:09:18;7.23;;;3.60;;
1811;SDS011;904;47.814;11.134;2023-08-20T11:11:47;5.90;;;3.93;;
1811;SDS011;904;47.814;11.134;2023-08-20T11:14:20;6.17;;;4.23;;
1811;SDS011;904;47.814;11.134;2023-08-20T11:16:47;5.17;;;2.97;;
1811;SDS011;904;47.814;11.134;2023-08-20T11:19:18;5.33;;;3.67;;
1811;SDS011;904;47.814;11.134;2023-08-20T11:21:47;6.90;;;3.30;;
1811;SDS011;904;47.814;11.134;2023-08-20T11:24:15;8.50;;;4.10;;
1811;SDS011;904;47.814;11.134;2023-08-20T11:26:45;6.50;;;3.70;;
1811;SDS011;904;47.814;11.134;2023-08-20T11:29:13;8.07;;;3.30;;
1811;SDS011;904;47.814;11.134;2023-08-20T11:31:44;8.20;;;2.97;;
1811;SDS011;904;47.814;11.134;2023-08-20T11:34:12;6.90;;;3.60;;
1811;SDS011;904;47.814;11.134;2023-08-20T11:36:39;4.90;;;3.60;;
1811;SDS011;904;47.814;11.134;2023-08-20T11:39:09;5.10;;;3.20;;
1811;SDS011;904;47.814;11.134;2023-08-20T11:41:37;5.10;;;3.70;;
1811;SDS011;904;47.814;11.134;2023-08-20T11:44:08;6.20;;;3.37;;
1811;SDS011;904;47.814;11.134;2023-08-20T11:46:47;4.90;;;3.30;;
1811;SDS011;904;47.814;11.134;2023-08-20T11:49:15;8.90;;;3.53;;
1811;SDS011;904;47.814;11.134;2023-08-20T11:51:43;6.07;;;3.60;;
1811;SDS011;904;47.814;11.134;2023-08-20T11:54:15;5.50;;;3.07;;
1811;SDS011;904;47.814;11.134;2023-08-20T11:56:43;8.03;;;4.50;;
1811;SDS011;904;47.814;11.134;2023-08-20T11:59:11;5.60;;;3.37;;
1811;SDS011;904;47.814;11.134;2023-08-20T12:01:40;9.50;;;3.60;;
1811;SDS011;904;47.814;11.134;2023-08-20T12:04:08;5.23;;;3.40;;
1811;SDS011;904;47.814;11.134;2023-08-20T12:06:36;7.30;;;3.20;;
1811;SDS011;904;47.814;11.134;2023-08-20T12:09:19;8.53;;;3.77;;
1811;SDS011;904;47.814;11.134;2023-08-20T12:11:52;5.00;;;3.47;;
1811;SDS011;904;47.814;11.134;2023-08-20T12:14:21;16.03;;;4.13;;
1811;SDS011;904;47.814;11.134;2023-08-20T12:16:48;8.40;;;3.47;;
1811;SDS011;904;47.814;11.134;2023-08-20T12:19:16;6.10;;;3.80;;
1811;SDS011;904;47.814;11.134;2023-08-20T12:21:43;6.70;;;3.27;;
1811;SDS011;904;47.814;11.134;2023-08-20T12:24:12;5.30;;;3.17;;
1811;SDS011;904;47.814;11.134;2023-08-20T12:26:41;8.57;;;3.17;;
1811;SDS011;904;47.814;11.134;2023-08-20T12:29:08;9.67;;;3.80;;
1811;SDS011;904;47.814;11.134;2023-08-20T12:31:35;6.73;;;3.27;;
1811;SDS011;904;47.814;11.134;2023-08-20T12:34:02;5.50;;;3.70;;
1811;SDS011;904;47.814;11.134;2023-08-20T12:36:29;8.40;;;3.50;;
1811;SDS011;904;47.814;11.134;2023-08-20T12:38:56;5.20;;;3.00;;
1811;SDS011;904;47.814;11.134;2023-08-20T12:41:23;11.50;;;4.03;;
1811;SDS011;904;47.814;11.134;2023-08-20T12:43:52;7.03;;;3.70;;
1811;SDS011;904;47.814;11.134;2023-08-20T12:46:19;5.83;;;3.20;;
1811;SDS011;904;47.814;11.134;2023-08-20T12:48:46;6.70;;;3.20;;
1811;SDS011;904;47.814;11.134;2023-08-20T12:51:13;6.80;;;2.93;;
1811;SDS011;904;47.814;11.134;2023-08-20T12:53:42;10.93;;;3.50;;
1811;SDS011;904;47.814;11.134;2023-08-20T12:56:09;3.37;;;2.40;;
1811;SDS011;904;47.814;11.134;2023-08-20T12:58:37;7.67;;;3.30;;
1811;SDS011;904;47.814;11.134;2023-08-20T13:01:05;6.10;;;3.17;;
1811;SDS011;904;47.814;11.134;2023-08-20T13:03:32;8.70;;;2.80;;
1811;SDS011;904;47.814;11.134;2023-08-20T13:06:00;6.57;;;3.07;;
1811;SDS011;904;47.814;11.134;2023-08-20T13:08:28;8.10;;;3.63;;
1811;SDS011;904;47.814;11.134;2023-08-20T13:10:56;6.27;;;3.10;;
1811;SDS011;904;47.814;11.134;2023-08-20T13:13:24;6.73;;;3.00;;
1811;SDS011;904;47.814;11.134;2023-08-20T13:15:52;4.90;;;2.83;;
1811;SDS011;904;47.814;11.134;2023-08-20T13:18:21;7.43;;;3.03;;
1811;SDS011;904;47.814;11.134;2023-08-20T13:20:50;7.03;;;3.13;;
1811;SDS011;904;47.814;11.134;2023-08-20T13:23:18;4.17;;;2.70;;
1811;SDS011;904;47.814;11.134;2023-08-20T13:25:45;5.83;;;2.87;;
1811;SDS011;904;47.814;11.134;2023-08-20T13:28:12;6.43;;;2.80;;
1811;SDS011;904;47.814;11.134;2023-08-20T13:30:39;6.20;;;3.30;;
1811;SDS011;904;47.814;11.134;2023-08-20T13:33:06;4.20;;;2.37;;
1811;SDS011;904;47.814;11.134;2023-08-20T13:35:34;9.73;;;2.60;;
1811;SDS011;904;47.814;11.134;2023-08-20T13:38:01;4.30;;;2.70;;
1811;SDS011;904;47.814;11.134;2023-08-20T13:40:29;5.87;;;2.90;;
1811;SDS011;904;47.814;11.134;2023-08-20T13:42:56;5.80;;;2.63;;
1811;SDS011;904;47.814;11.134;2023-08-20T13:45:23;4.03;;;2.27;;
1811;SDS011;904;47.814;11.134;2023-08-20T13:47:50;5.63;;;2.37;;
1811;SDS011;904;47.814;11.134;2023-08-20T13:50:17;6.83;;;3.00;;
1811;SDS011;904;47.814;11.134;2023-08-20T13:52:45;6.77;;;3.23;;
1811;SDS011;904;47.814;11.134;2023-08-20T13:55:12;9.80;;;3.23;;
1811;SDS011;904;47.814;11.134;2023-08-20T13:57:40;8.40;;;3.07;;
1811;SDS011;904;47.814;11.134;2023-08-20T14:00:07;7.00;;;2.90;;
1811;SDS011;904;47.814;11.134;2023-08-20T14:02:37;5.70;;;2.53;;
1811;SDS011;904;47.814;11.134;2023-08-20T14:05:04;8.57;;;3.90;;
1811;SDS011;904;47.814;11.134;2023-08-20T14:07:32;9.20;;;2.87;;
1811;SDS011;904;47.814;11.134;2023-08-20T14:10:00;6.53;;;3.30;;
1811;SDS011;904;47.814;11.134;2023-08-20T14:12:28;3.90;;;1.93;;
1811;SDS011;904;47.814;11.134;2023-08-20T14:14:55;4.00;;;2.50;;
1811;SDS011;904;47.814;11.134;2023-08-20T14:17:22;4.70;;;2.60;;
1811;SDS011;904;47.814;11.134;2023-08-20T14:19:49;6.63;;;3.27;;
1811;SDS011;904;47.814;11.134;2023-08-20T14:22:16;9.00;;;2.63;;
1811;SDS011;904;47.814;11.134;2023-08-20T14:24:44;7.27;;;3.50;;
1811;SDS011;904;47.814;11.134;2023-08-20T14:27:12;4.93;;;3.10;;
1811;SDS011;904;47.814;11.134;2023-08-20T14:29:40;6.17;;;3.23;;
1811;SDS011;904;47.814;11.134;2023-08-20T14:32:07;6.73;;;3.27;;
1811;SDS011;904;47.814;11.134;2023-08-20T14:34:34;5.43;;;2.87;;
1811;SDS011;904;47.814;11.134;2023-08-20T14:37:01;3.70;;;2.50;;
1811;SDS011;904;47.814;11.134;2023-08-20T14:39:28;7.57;;;3.40;;
1811;SDS011;904;47.814;11.134;2023-08-20T14:41:56;5.53;;;2.93;;
1811;SDS011;904;47.814;11.134;2023-08-20T14:44:25;4.20;;;2.90;;
1811;SDS011;904;47.814;11.134;2023-08-20T14:46:51;10.47;;;3.30;;
1811;SDS011;904;47.814;11.134;2023-08-20T14:49:18;8.27;;;2.70;;
1811;SDS011;904;47.814;11.134;2023-08-20T14:51:46;5.83;;;3.07;;
1811;SDS011;904;47.814;11.134;2023-08-20T14:54:13;7.63;;;3.37;;
1811;SDS011;904;47.814;11.134;2023-08-20T14:56:40;4.00;;;2.77;;
1811;SDS011;904;47.814;11.134;2023-08-20T14:59:07;4.50;;;3.30;;
1811;SDS011;904;47.814;11.134;2023-08-20T15:01:36;6.53;;;2.63;;
1811;SDS011;904;47.814;11.134;2023-08-20T15:04:03;5.77;;;3.60;;
1811;SDS011;904;47.814;11.134;2023-08-20T15:06:31;6.20;;;2.70;;
1811;SDS011;904;47.814;11.134;2023-08-20T15:08:59;8.77;;;3.33;;
1811;SDS011;904;47.814;11.134;2023-08-20T15:11:26;10.47;;;3.73;;
1811;SDS011;904;47.814;11.134;2023-08-20T15:13:53;6.73;;;3.60;;
1811;SDS011;904;47.814;11.134;2023-08-20T15:16:21;6.33;;;3.23;;
1811;SDS011;904;47.814;11.134;2023-08-20T15:18:49;8.37;;;3.67;;
1811;SDS011;904;47.814;11.134;2023-08-20T15:21:16;6.30;;;3.00;;
1811;SDS011;904;47.814;11.134;2023-08-20T15:23:43;5.47;;;2.87;;
1811;SDS011;904;47.814;11.134;2023-08-20T15:26:10;7.50;;;3.37;;
1811;SDS011;904;47.814;11.134;2023-08-20T15:28:37;3.90;;;2.80;;